Thursday, November 23, 2017, 4:38 AM EST
Back to Local

KAFN, Jaffrey Muni-silver Ranch

Location: Jaffrey, NH, United States Lat: 42.8
Local Time: 4:38 AM EST ( 9:38 GMT) Lon: -72
Time Zone: US/Eastern Elev: 1040 ft

Show me the last for .
Show Decoded

2017-11-23 03:52 METAR KAFN 230852Z AUTO VRB06KT 10SM FEW026 M02/M06 A2996 RMK AO2 SLP161
                 T10171061 51007 TSNO =
2017-11-23 02:52 METAR KAFN 230752Z AUTO 29003KT 10SM FEW030 M01/M06 A2996 RMK AO2 SLP160
                 T10111061 TSNO =
2017-11-23 01:21 METAR KAFN 230621Z AUTO 33007KT 280V350 10SM SCT028 00/M06 A2994 RMK AO2
                 T00001056 TSNO =
2017-11-23 00:52 METAR KAFN 230552Z AUTO 31005KT 10SM OVC027 00/M05 A2994 RMK AO2 SLP152
                 T00001050 10028 20000 51015 TSNO =
2017-11-23 00:28 METAR KAFN 230528Z AUTO 00000KT 10SM OVC028 01/M05 A2994 RMK AO2 T00061050 TSNO
                 =
2017-11-22 23:52 METAR KAFN 230452Z AUTO VRB04KT 10SM BKN032 01/M06 A2993 RMK AO2 SLP151
                 T00061056 400670006 TSNO =
2017-11-22 22:52 METAR KAFN 230352Z AUTO 33011G22KT 10SM FEW032 02/M05 A2991 RMK AO2 SLP141
                 T00171050 TSNO =
2017-11-22 21:52 METAR KAFN 230252Z AUTO 33010G19KT 310V020 10SM OVC031 02/M03 A2989 RMK AO2
                 SLP137 T00221033 50003 TSNO =
2017-11-22 20:52 METAR KAFN 230152Z AUTO 34007G15KT 280V030 10SM FEW021 SCT030 OVC039 03/M01
                 A2990 RMK AO2 SLP137 T00281011 TSNO =
2017-11-22 20:37 METAR KAFN 230137Z AUTO 33008G14KT 300V020 10SM SCT023 OVC039 03/M01 A2989 RMK
                 AO2 T00281011 TSNO =
2017-11-22 20:14 METAR KAFN 230114Z AUTO 31008G15KT 270V350 10SM SCT021 BKN026 OVC034 03/M01
                 A2989 RMK AO2 T00281011 TSNO =
2017-11-22 19:52 METAR KAFN 230052Z AUTO VRB05G17KT 10SM OVC037 03/M01 A2989 RMK AO2 SLP135
                 T00281011 TSNO =
2017-11-22 18:52 METAR KAFN 222352Z AUTO VRB04G17KT 10SM SCT030 OVC035 03/M01 A2988 RMK AO2
                 SLP134 60003 T00281011 10067 20028 53008 TSNO =
2017-11-22 18:42 METAR KAFN 222342Z AUTO 33011G18KT 10SM FEW024 OVC030 03/M01 A2989 RMK AO2
                 T00281011 TSNO =
2017-11-22 18:16 METAR KAFN 222316Z AUTO VRB05G15KT 10SM BKN028 03/M01 A2988 RMK AO2 T00331006
                 TSNO =
2017-11-22 17:52 METAR KAFN 222252Z AUTO 32008G18KT 280V010 10SM FEW024 SCT080 03/M01 A2987 RMK
                 AO2 SLP129 T00281006 TSNO =
2017-11-22 17:38 METAR KAFN 222238Z AUTO 35009G19KT 10SM SCT024 SCT080 03/00 A2986 RMK AO2
                 T00330000 TSNO =
2017-11-22 16:52 METAR KAFN 222152Z AUTO 34007G16KT 300V020 10SM FEW011 BKN021 OVC025 03/01 A2986
                 RMK AO2 RAB35E47 SLP126 P0000 T00330011 TSNO =
2017-11-22 16:50 METAR KAFN 222150Z AUTO 32009G16KT 10SM SCT011 OVC021 03/02 A2986 RMK AO2
                 RAB35E47 P0000 TSNO =
2017-11-22 16:15 METAR KAFN 222115Z AUTO VRB05KT 10SM OVC013 04/03 A2985 RMK AO2 T00440028 TSNO =
2017-11-22 15:52 METAR KAFN 222052Z AUTO VRB05G18KT 10SM BKN020 OVC032 05/03 A2984 RMK AO2 RAE16
                 SLP118 P0000 60003 T00500028 53005 TSNO =
2017-11-22 15:35 METAR KAFN 222035Z AUTO VRB03KT 10SM FEW014 OVC021 06/03 A2984 RMK AO2 RAE16
                 P0000 T00560033 TSNO =
2017-11-22 15:24 METAR KAFN 222024Z AUTO VRB04KT 10SM BKN014 OVC021 06/04 A2984 RMK AO2 RAE16
                 P0000 T00560044 TSNO =
2017-11-22 14:52 METAR KAFN 221952Z AUTO 00000KT 10SM -RA OVC017 06/05 A2983 RMK AO2 RAE1855B05
                 SLP116 P0001 T00610050 TSNO =
2017-11-22 14:22 METAR KAFN 221922Z AUTO 33004KT 10SM -RA SCT019 BKN023 OVC044 07/06 A2982 RMK
                 AO2 RAE1855B05 P0001 T00670056 TSNO =
2017-11-22 14:13 METAR KAFN 221913Z AUTO VRB03KT 10SM -RA SCT019 BKN032 OVC046 07/06 A2981 RMK
                 AO2 RAE1855B05 P0000 T00670056 TSNO =
2017-11-22 14:03 METAR KAFN 221903Z AUTO 00000KT 10SM BKN019 BKN033 OVC046 07/06 A2982 RMK AO2
                 RAE1855 P0000 T00670061 TSNO =
2017-11-22 13:52 METAR KAFN 221852Z AUTO VRB04KT 8SM -RA SCT019 BKN034 OVC044 07/06 A2982 RMK AO2
                 SLP110 P0002 T00670056 TSNO =
2017-11-22 13:17 METAR KAFN 221817Z AUTO 00000KT 4SM -RA BR BKN039 OVC050 06/06 A2981 RMK AO2
                 P0002 T00610061 TSNO =
2017-11-22 13:06 METAR KAFN 221806Z AUTO 00000KT 2 1/2SM RA BR BKN036 OVC050 06/06 A2981 RMK AO2
                 P0001 T00610056 TSNO =
2017-11-22 12:52 METAR KAFN 221752Z AUTO 00000KT 1 1/2SM -RA BR OVC038 06/06 A2982 RMK AO2 SLP110
                 P0003 60014 T00610061 10061 20017 58015 TSNO =
2017-11-22 12:34 METAR KAFN 221734Z AUTO 00000KT 1 3/4SM -RA BR OVC042 06/06 A2983 RMK AO2 P0001
                 T00610061 TSNO =
2017-11-22 11:52 METAR KAFN 221652Z AUTO 00000KT 3SM -RA BR OVC042 05/05 A2985 RMK AO2 SLP120
                 P0003 T00500050 TSNO =
2017-11-22 11:30 METAR KAFN 221630Z AUTO VRB03KT 3SM -RA BR SCT012 BKN032 OVC041 05/05 A2986 RMK
                 AO2 P0002 T00500050 TSNO =
2017-11-22 11:16 METAR KAFN 221616Z AUTO 00000KT 2 1/2SM -RA BR BKN012 OVC030 05/05 A2986 RMK AO2
                 P0002 T00500050 TSNO =
2017-11-22 11:07 METAR KAFN 221607Z AUTO 34003KT 3SM -RA BR FEW014 SCT023 OVC030 05/05 A2987 RMK
                 AO2 P0001 T00500050 TSNO =
2017-11-22 10:52 METAR KAFN 221552Z AUTO 01003KT 2SM -RA BR FEW012 SCT019 OVC026 05/04 A2987 RMK
                 AO2 SLP126 P0007 T00500044 TSNO =
2017-11-22 10:43 METAR KAFN 221543Z AUTO 00000KT 1 3/4SM -RA BR SCT011 BKN019 OVC024 05/04 A2987
                 RMK AO2 P0007 T00500044 TSNO =
2017-11-22 10:20 METAR KAFN 221520Z AUTO 00000KT 2SM RA BR OVC011 04/04 A2988 RMK AO2 P0004
                 T00440044 TSNO =
2017-11-22 10:06 METAR KAFN 221506Z AUTO 00000KT 1 3/4SM RA BR OVC011 04/04 A2989 RMK AO2 P0002
                 T00440044 TSNO =
2017-11-22 09:52 METAR KAFN 221452Z AUTO 00000KT 4SM -RA BR OVC011 04/04 A2988 RMK AO2 RAB13
                 SLP131 P0001 60001 T00440039 56013 TSNO =
2017-11-22 09:34 METAR KAFN 221434Z AUTO 00000KT 7SM -RA OVC013 04/04 A2988 RMK AO2 RAB13 P0000
                 T00440039 TSNO =
2017-11-22 09:10 METAR KAFN 221410Z AUTO 00000KT 10SM BKN017 OVC090 04/04 A2988 RMK AO2 T00390039
                 TSNO =
2017-11-22 08:52 METAR KAFN 221352Z AUTO 00000KT 10SM FEW020 SCT042 OVC090 04/02 A2988 RMK AO2
                 SLP131 T00390022 TSNO =
2017-11-22 07:52 METAR KAFN 221252Z AUTO 00000KT 10SM BKN090 OVC110 03/02 A2991 RMK AO2 SLP139
                 T00280022 TSNO =
2017-11-22 06:52 METAR KAFN 221152Z AUTO 00000KT 9SM FEW120 02/01 A2992 RMK AO2 SLP144 T00170011
                 10050 20006 57012 TSNO =
2017-11-22 05:52 METAR KAFN 221052Z AUTO 00000KT 10SM CLR 01/01 A2993 RMK AO2 SLP147 T00110011
                 TSNO =
2017-11-22 04:52 METAR KAFN 220952Z AUTO 00000KT 10SM CLR 01/01 A2995 RMK AO2 SLP153 T00060006
                 TSNO =

Support USWX by starting your Amazon purchase here.